Página principal
METAR-TAF:

METAR-TAF

Aeroportos :

Qazvin, Irão

latitude: 36-15N, longitude: 050-00E, altura: 1278 m

Observação actual do tempo

O boletim foi feito há 40 minutos, às 02:00 UTC
Vento 2 kt de oes-noroeste
Temperatura 8°C
Humidade 100%
Pressão 1011 hPa
Visibilidade: 9000 m
Poucas nuvensa uma altura de 3500 ft, Cumulus congestus.
Nuvens dispersasa uma altura de 4000 ft
Encobertoa uma altura de 10000 ft

METAR: OIIK 190200Z 30002KT 9000 FEW035TCU SCT040 OVC100 08/08 Q1011 RERA

Hora: 07:10 (02:40 UTC)


TAF: em falta

Observações e previsões do tempo de mais de 4000 aeroportos (mensagens METAR e TAF).

As estações disponíveis são os pontos amarelos e vermelhos sobre o mapa.

Mova o rato sobre o mapa para ver o nome da estação.

Depois clique no ponto para visualizar as observações e previsões meteorológicas.

Para alterar o mapa : clique nos botões verdes com uma cruz preta para aumentar o zoom; no botão verde com uma pitada de zoom; ou nas setas verdes para mapas adjacentes.


METAR-TAF: